Time;durP1;ratioP1;P1;durP2;ratioP2;P2;SDS_P1;SDS_P2;PMS_P1;PMS_P2;Temp;Humidity;BMP_temperature;BMP_pressure;BME280_temperature;BME280_humidity;BME280_pressure;Samples;Min_cycle;Max_cycle;Signal;HPM_P1;HPM_P2
2022/01/19 00:02:27;;;;;;;32.28;11.02;;;;;;;0.24;57.17;93957.59;5013925;28;20049;-89
2022/01/19 00:04:53;;;;;;;40.60;12.35;;;;;;;0.18;58.28;93935.16;5013708;28;20077;-89
2022/01/19 00:07:36;;;;;;;;;;;;;;;;;;;;;
2022/01/19 00:10:15;;;;;;;;;;;;;;;;;;;;;
2022/01/19 00:12:46;;;;;;;35.35;10.43;;;;;;;0.19;58.32;93957.34;4994370;28;20041;-89
2022/01/19 00:15:13;;;;;;;36.78;11.93;;;;;;;0.17;58.89;93962.69;4994242;28;20064;-89
2022/01/19 00:17:47;;;;;;;33.97;10.70;;;;;;;0.10;58.94;93961.03;4998759;28;20026;-89
2022/01/19 00:20:31;;;;;;;36.10;10.25;;;;;;;0.45;59.26;94018.59;5009441;28;20034;-89
2022/01/19 00:23:07;;;;;;;28.95;10.57;;;;;;;0.10;58.60;93967.00;4993936;28;20053;-88
2022/01/19 00:25:34;;;;;;;34.13;11.23;;;;;;;0.08;59.24;93973.31;4994921;28;20050;-89
2022/01/19 00:28:04;;;;;;;31.50;10.25;;;;;;;0.07;58.54;93980.25;4984497;28;20079;-89
2022/01/19 00:30:43;;;;;;;32.75;9.98;;;;;;;0.06;58.65;93978.63;5003504;28;20038;-90
2022/01/19 00:33:13;;;;;;;26.15;9.63;;;;;;;0.07;58.44;93975.09;5003051;28;20076;-89
2022/01/19 00:35:42;;;;;;;29.88;9.50;;;;;;;0.35;58.29;94012.97;5013011;28;20059;-88
2022/01/19 00:38:08;;;;;;;33.75;10.70;;;;;;;0.03;58.08;93961.00;5013877;28;20025;-89
2022/01/19 00:40:38;;;;;;;33.20;11.23;;;;;;;0.05;58.20;93966.75;4996105;28;20049;-89
2022/01/19 00:43:15;;;;;;;23.30;8.73;;;;;;;0.19;58.22;93985.69;5009418;28;20059;-89
2022/01/19 00:45:42;;;;;;;30.58;10.73;;;;;;;0.02;57.85;93956.81;5013769;28;20052;-89
2022/01/19 00:48:13;;;;;;;28.02;8.38;;;;;;;0.01;58.29;93960.38;4997473;28;20061;-89
2022/01/19 00:50:57;;;;;;;27.48;9.60;;;;;;;-0.03;57.61;93954.00;5029203;28;20509;-89
2022/01/19 00:53:26;;;;;;;31.83;10.43;;;;;;;0.19;57.78;93988.25;4992919;28;20041;-89
2022/01/19 00:55:57;;;;;;;30.23;9.43;;;;;;;0.29;58.12;93998.25;4997071;28;20047;-89
2022/01/19 00:58:28;;;;;;;32.70;9.77;;;;;;;0.27;58.55;94007.94;5013179;28;20053;-88
2022/01/19 01:01:04;;;;;;;27.05;9.93;;;;;;;0.12;58.51;93998.50;5012354;28;20049;-89
2022/01/19 01:03:42;;;;;;;35.42;10.23;;;;;;;-0.11;58.56;93954.13;5029159;28;20056;-89
2022/01/19 01:06:15;;;;;;;32.75;10.60;;;;;;;-0.01;58.63;93960.56;4996935;28;20124;-89
2022/01/19 01:08:49;;;;;;;26.25;9.95;;;;;;;0.01;59.03;93954.44;5014372;28;20052;-89
2022/01/19 01:11:28;;;;;;;35.05;10.85;;;;;;;-0.09;59.28;93934.13;5016254;28;20040;-88
2022/01/19 01:16:38;;;;;;;31.48;10.57;;;;;;;-0.15;59.05;93922.03;5035264;28;20087;-89
2022/01/19 01:19:10;;;;;;;36.97;10.48;;;;;;;0.12;59.00;93967.59;4999283;28;20135;-89
2022/01/19 01:21:44;;;;;;;36.28;10.60;;;;;;;0.11;59.27;93984.06;5015077;28;20041;-89
2022/01/19 01:24:13;;;;;;;28.02;10.90;;;;;;;0.10;59.80;93995.31;5016976;28;20475;-88
2022/01/19 01:26:42;;;;;;;36.85;12.05;;;;;;;0.08;60.17;94002.44;5000559;28;20025;-89
2022/01/19 01:29:14;;;;;;;34.70;12.52;;;;;;;-0.07;60.26;93994.78;4990713;28;20046;-89
2022/01/19 01:31:44;;;;;;;25.38;9.63;;;;;;;0.07;60.36;94011.16;4997263;28;20431;-89
2022/01/19 01:34:13;;;;;;;39.28;11.32;;;;;;;-0.26;60.44;93962.69;5011600;28;20116;-88
2022/01/19 01:36:53;;;;;;;33.25;11.93;;;;;;;-0.26;60.08;93978.16;5013562;28;20044;-88
2022/01/19 01:39:26;;;;;;;33.47;12.07;;;;;;;-0.25;59.80;93982.31;4982666;28;20041;-89
2022/01/19 01:41:57;;;;;;;32.65;11.18;;;;;;;-0.03;60.09;94002.91;5013099;28;20065;-89
2022/01/19 01:44:49;;;;;;;;;;;;;;;;;;;;;
2022/01/19 01:47:20;;;;;;;34.45;10.20;;;;;;;-0.25;60.78;93948.88;4996949;28;20037;-89
2022/01/19 01:55:21;;;;;;;;;;;;;;;0.14;58.86;94019.72;5015198;28;20554;-89
2022/01/19 01:57:53;;;;;;;26.42;7.43;;;;;;;-0.06;59.17;93990.41;5017204;28;19912;-88
2022/01/19 02:00:26;;;;;;;24.45;8.30;;;;;;;-0.39;59.02;93947.13;5017268;28;20453;-88
2022/01/19 02:02:56;;;;;;;27.70;9.05;;;;;;;-0.14;58.83;93993.09;5016555;28;20041;-88
2022/01/19 02:05:35;;;;;;;34.08;9.85;;;;;;;-0.17;59.06;93986.56;5016088;28;20460;-89
2022/01/19 02:08:10;;;;;;;29.02;8.90;;;;;;;-0.38;59.59;93960.78;4990203;28;20030;-89
2022/01/19 02:16:31;;;;;;;26.67;8.65;;;;;;;-0.34;59.18;93957.66;5014185;28;20061;-89
2022/01/19 02:22:01;;;;;;;25.55;8.15;;;;;;;-0.51;58.51;93910.00;5011954;28;20535;-88
2022/01/19 02:24:41;;;;;;;23.05;7.82;;;;;;;-0.22;59.01;93958.00;4980380;28;20145;-89
2022/01/19 02:41:02;;;;;;;24.10;8.57;;;;;;;-0.18;59.93;93950.69;4961648;28;20104;-89
2022/01/19 02:43:38;;;;;;;26.67;9.05;;;;;;;-0.65;59.29;93881.59;4996122;28;20036;-88
2022/01/19 02:51:44;;;;;;;24.27;8.30;;;;;;;-0.62;59.99;93880.41;4996274;28;20541;-88
2022/01/19 02:54:18;;;;;;;25.83;8.57;;;;;;;-0.34;59.92;93921.63;4980417;28;20040;-90
2022/01/19 02:57:07;;;;;;;28.80;9.10;;;;;;;-0.36;59.75;93921.06;4979546;28;20029;-89
2022/01/19 03:10:29;;;;;;;28.75;9.50;;;;;;;-0.68;59.99;93858.78;5012580;28;20053;-88
2022/01/19 03:12:54;;;;;;;27.13;9.50;;;;;;;-0.19;60.25;93936.25;5015483;28;20025;-88
2022/01/19 03:15:30;;;;;;;27.15;9.85;;;;;;;-0.56;60.15;93877.13;5015128;28;20037;-88
2022/01/19 03:17:58;;;;;;;30.92;10.23;;;;;;;-0.42;60.52;93898.63;5031833;28;20049;-88
2022/01/19 03:20:26;;;;;;;23.50;9.18;;;;;;;-0.75;60.51;93845.06;4997621;28;20029;-89
2022/01/19 03:23:10;;;;;;;28.60;8.73;;;;;;;-0.61;60.54;93869.13;5002044;28;20052;-88
2022/01/19 03:25:47;;;;;;;26.73;9.35;;;;;;;-0.61;60.36;93863.22;4990691;28;20044;-88
2022/01/19 03:28:20;;;;;;;26.48;8.90;;;;;;;-0.39;60.50;93897.44;4983066;28;20033;-89
2022/01/19 03:30:49;;;;;;;24.80;9.63;;;;;;;-0.70;60.43;93854.81;4979577;28;20045;-88
2022/01/19 03:33:27;;;;;;;27.00;8.50;;;;;;;-0.43;60.05;93892.69;4978248;28;20073;-88
2022/01/19 03:35:58;;;;;;;26.98;9.93;;;;;;;-0.51;60.09;93874.00;4995768;28;20481;-88
2022/01/19 03:38:49;;;;;;;32.85;9.93;;;;;;;-0.73;60.17;93848.25;5010837;28;20046;-87
2022/01/19 03:41:25;;;;;;;28.95;9.35;;;;;;;-0.40;60.23;93896.66;5010787;28;20046;-89
2022/01/19 03:43:56;;;;;;;29.67;8.95;;;;;;;-0.44;59.99;93887.72;4995079;28;20140;-88
2022/01/19 03:46:32;;;;;;;30.15;9.23;;;;;;;-0.46;60.58;93889.66;4994552;28;20149;-88
2022/01/19 03:49:11;;;;;;;22.95;8.73;;;;;;;-0.46;60.69;93887.88;5001669;28;20083;-89
2022/01/19 03:51:39;;;;;;;28.67;8.75;;;;;;;-0.59;60.38;93868.97;4992190;28;20460;-88
2022/01/19 03:54:08;;;;;;;25.20;8.35;;;;;;;-0.49;60.25;93877.19;5007402;28;20398;-88
2022/01/19 03:56:34;;;;;;;29.23;10.13;;;;;;;-0.61;60.13;93860.63;4990937;28;20518;-89
2022/01/19 03:59:08;;;;;;;32.13;10.07;;;;;;;-0.72;60.50;93836.19;5007989;28;20041;-88
2022/01/19 04:01:38;;;;;;;26.88;8.75;;;;;;;-0.47;60.86;93880.38;5004299;28;20848;-88
2022/01/19 04:07:08;;;;;;;23.38;7.45;;;;;;;-0.85;60.91;93821.47;4975590;28;20097;-88
2022/01/19 04:09:46;;;;;;;30.80;8.18;;;;;;;-0.79;60.30;93841.28;4974577;28;20133;-88
2022/01/19 04:12:35;;;;;;;;;;;;;;;;;;;;;
2022/01/19 04:15:01;;;;;;;25.58;9.20;;;;;;;-0.64;61.01;93865.16;4975741;28;20046;-88
2022/01/19 04:17:42;;;;;;;22.92;8.25;;;;;;;-0.90;61.38;93824.56;4976276;28;20882;-88
2022/01/19 04:20:08;;;;;;;24.45;8.52;;;;;;;-0.54;61.11;93876.91;4974852;28;20476;-88
2022/01/19 04:22:36;;;;;;;27.35;8.90;;;;;;;-0.59;61.05;93874.91;4958483;28;20129;-88
2022/01/19 04:25:07;;;;;;;19.15;7.70;;;;;;;-0.90;60.80;93832.28;4959306;28;20125;-88
2022/01/19 04:27:33;;;;;;;24.65;8.00;;;;;;;-0.91;61.29;93825.53;4969199;28;20060;-88
2022/01/19 04:30:15;;;;;;;21.10;7.30;;;;;;;-0.92;61.21;93826.53;4975983;28;20034;-88
2022/01/19 04:35:27;;;;;;;18.40;6.35;;;;;;;-0.67;60.03;93865.53;4985002;28;20045;-88
2022/01/19 04:54:17;;;;;;;25.20;8.10;;;;;;;-0.82;60.72;93849.34;4990802;28;20045;-88
2022/01/19 05:03:59;;;;;;;28.45;9.40;;;;;;;-0.89;61.89;93835.66;5010627;28;20038;-89
2022/01/19 05:07:07;;;;;;;25.48;9.13;;;;;;;-1.14;61.88;93807.72;5000206;28;20047;-88
2022/01/19 05:14:50;;;;;;;22.02;8.00;;;;;;;-0.77;61.94;93867.59;4994048;28;20045;-88
2022/01/19 05:17:21;;;;;;;19.73;7.00;;;;;;;-0.88;61.58;93842.38;4981007;28;20162;-89
2022/01/19 05:19:56;;;;;;;21.17;7.80;;;;;;;-0.94;61.52;93835.41;5000429;28;20048;-89
2022/01/19 05:22:30;;;;;;;28.08;8.57;;;;;;;-1.25;61.65;93787.63;5008992;28;20034;-88
2022/01/19 05:25:17;;;;;;;19.33;7.80;;;;;;;-0.90;61.19;93839.19;4995762;28;20044;-89
2022/01/19 05:27:56;;;;;;;21.88;6.97;;;;;;;-1.27;61.15;93782.66;4984510;28;20038;-88
2022/01/19 05:30:32;;;;;;;19.85;6.15;;;;;;;-1.33;61.55;93772.31;4993335;28;20064;-88
2022/01/19 05:33:01;;;;;;;19.67;6.50;;;;;;;-0.97;61.22;93825.47;4997010;28;20043;-88
2022/01/19 05:35:30;;;;;;;32.53;8.15;;;;;;;-1.22;61.35;93791.59;4993675;28;20116;-88
2022/01/19 05:38:25;;;;;;;24.20;8.32;;;;;;;-0.87;61.58;93831.13;5015639;28;20045;-88
2022/01/19 05:41:37;;;;;;;28.13;9.23;;;;;;;-0.78;61.94;93848.03;4988350;28;20044;-88
2022/01/19 05:44:16;;;;;;;22.80;9.35;;;;;;;-1.18;61.98;93788.50;5010013;28;20042;-88
2022/01/19 05:46:44;;;;;;;28.95;8.45;;;;;;;-0.81;62.10;93842.44;5003898;28;20041;-88
2022/01/19 05:49:15;;;;;;;25.10;8.32;;;;;;;-1.11;62.01;93796.28;4993264;28;20243;-88
2022/01/19 05:51:48;;;;;;;31.77;10.00;;;;;;;-1.17;61.42;93776.44;4992179;28;20619;-87
2022/01/19 05:54:24;;;;;;;24.25;8.10;;;;;;;-0.89;61.94;93820.22;4979811;28;20037;-88
2022/01/19 06:01:11;;;;;;;14.02;5.57;;;;;;;-0.75;61.64;93845.06;5021379;28;20022;-90
2022/01/19 06:03:37;;;;;;;20.77;5.90;;;;;;;-0.77;61.81;93846.25;5036296;28;20479;-90
2022/01/19 06:06:56;;;;;;;14.15;5.78;;;;;;;-0.80;61.84;93839.69;4963779;28;20043;-91
2022/01/19 06:13:35;;;;;;;24.00;6.53;;;;;;;-0.90;62.02;93829.72;4977155;28;20078;-92
2022/01/19 06:19:33;;;;;;;17.33;6.03;;;;;;;-0.87;61.75;93838.84;4999912;28;20041;-91
2022/01/19 06:22:00;;;;;;;15.60;5.97;;;;;;;-0.88;61.49;93842.38;4972550;28;20050;-91
2022/01/19 06:24:26;;;;;;;16.13;5.78;;;;;;;-0.93;61.91;93837.00;5004143;28;20071;-90
2022/01/19 06:26:52;;;;;;;25.42;7.22;;;;;;;-0.94;61.84;93838.78;5002891;28;20045;-91
2022/01/19 06:29:18;;;;;;;16.63;6.25;;;;;;;-1.06;61.90;93820.47;5019335;28;20078;-90
2022/01/19 06:31:44;;;;;;;21.00;6.70;;;;;;;-0.95;62.11;93841.50;5018863;28;20053;-90
2022/01/19 06:34:12;;;;;;;21.45;6.68;;;;;;;-1.23;61.66;93798.53;5019166;28;20048;-91
2022/01/19 06:37:03;;;;;;;16.50;6.30;;;;;;;-0.96;61.01;93837.38;5005723;28;20045;-91
2022/01/19 06:39:40;;;;;;;16.70;6.05;;;;;;;-1.05;61.11;93824.63;5020565;28;20038;-91
2022/01/19 06:42:07;;;;;;;15.93;5.93;;;;;;;-1.01;60.69;93821.66;5002931;28;20034;-91
2022/01/19 06:44:33;;;;;;;17.10;6.22;;;;;;;-0.92;60.62;93828.31;5002278;28;20040;-91
2022/01/19 06:47:01;;;;;;;19.60;6.35;;;;;;;-0.93;60.61;93826.72;5018908;28;20038;-92
2022/01/19 06:49:27;;;;;;;20.73;7.13;;;;;;;-1.00;60.75;93816.34;5018675;28;20037;-91
2022/01/19 06:51:53;;;;;;;23.10;6.40;;;;;;;-1.13;60.26;93785.38;5018329;28;20083;-91
2022/01/19 06:54:35;;;;;;;15.55;5.35;;;;;;;-1.13;60.25;93787.94;4982430;28;20022;-91
2022/01/19 06:57:19;;;;;;;15.95;5.57;;;;;;;-1.05;59.99;93795.56;4982561;28;20054;-91
2022/01/19 07:00:10;;;;;;;13.38;5.13;;;;;;;-0.93;60.71;93806.13;5016394;28;20051;-90
2022/01/19 07:03:17;;;;;;;12.93;3.92;;;;;;;-1.03;60.47;93787.66;5016938;28;20056;-90
2022/01/19 07:05:56;;;;;;;10.55;4.30;;;;;;;-1.31;60.48;93745.47;5016721;28;20105;-90
2022/01/19 07:08:51;;;;;;;17.88;4.75;;;;;;;-0.90;60.21;93804.00;5005229;28;20049;-91
2022/01/19 07:11:42;;;;;;;10.82;4.38;;;;;;;-0.92;59.55;93785.41;5002538;28;20033;-90
2022/01/19 07:14:12;;;;;;;15.43;5.50;;;;;;;-1.19;60.56;93737.28;5016295;28;20045;-90
2022/01/19 07:16:49;;;;;;;16.38;6.00;;;;;;;-0.66;59.93;93810.53;5016931;28;20140;-90
2022/01/19 07:19:38;;;;;;;15.82;5.80;;;;;;;-1.03;59.99;93731.91;5001936;28;20037;-92
2022/01/19 07:22:22;;;;;;;;;;;;;;;;;;;;;
2022/01/19 07:25:17;;;;;;;16.38;6.32;;;;;;;2.94;51.46;93790.56;4997529;28;20045;-91
2022/01/19 07:27:47;;;;;;;24.40;6.90;;;;;;;4.68;45.52;93759.59;4997145;28;20046;-90
2022/01/19 07:30:35;;;;;;;19.15;6.45;;;;;;;6.20;42.83;93739.38;4997871;28;20030;-91
2022/01/19 07:33:36;;;;;;;25.88;9.18;;;;;;;7.66;39.26;93731.09;5035247;28;20049;-91
2022/01/19 07:36:34;;;;;;;;;;;;;;;;;;;;;
2022/01/19 07:39:15;;;;;;;29.17;9.82;;;;;;;10.59;33.92;93780.16;5010612;28;20041;-91
2022/01/19 07:44:58;;;;;;;27.45;9.85;;;;;;;12.57;30.39;93758.16;5005966;28;20046;-91
2022/01/19 07:47:56;;;;;;;27.67;10.45;;;;;;;13.54;28.30;93748.00;5017668;28;20048;-91
2022/01/19 07:51:15;;;;;;;28.30;10.38;;;;;;;14.74;26.71;93742.22;4999220;28;20050;-91
2022/01/19 07:54:24;;;;;;;34.77;10.47;;;;;;;15.54;24.86;93714.31;5007690;28;20042;-91
2022/01/19 07:57:45;;;;;;;;;;;;;;;;;;;;;
2022/01/19 08:08:07;;;;;;;25.35;9.75;;;;;;;17.73;21.72;93725.63;4962992;28;20054;-93
2022/01/19 08:10:56;;;;;;;;;;;;;;;;;;;;;
2022/01/19 08:14:34;;;;;;;;;;;;;;;;;;;;;
2022/01/19 08:17:30;;;;;;;23.70;9.10;;;;;;;17.14;22.06;93715.78;5000991;28;20092;-93
2022/01/19 08:20:14;;;;;;;34.28;9.93;;;;;;;17.37;21.86;93744.94;4998921;28;20060;-92
2022/01/19 08:26:52;;;;;;;23.77;9.70;;;;;;;19.49;19.44;93709.06;4954727;28;20050;-92
2022/01/19 08:29:48;;;;;;;22.13;9.95;;;;;;;20.13;18.84;93768.81;4921118;29;20039;-93
2022/01/19 08:33:03;;;;;;;;;;;;;;;;;;;;;
2022/01/19 08:43:36;;;;;;;25.38;9.20;;;;;;;21.97;17.13;93745.59;4993871;28;20399;-93
2022/01/19 08:46:13;;;;;;;21.52;9.05;;;;;;;21.39;17.30;93722.19;4997016;28;20064;-93
2022/01/19 08:53:03;;;;;;;27.50;10.10;;;;;;;18.45;19.75;93712.22;5014802;28;20045;-93
2022/01/19 08:56:44;;;;;;;21.30;9.60;;;;;;;18.51;20.24;93713.66;5014777;28;20532;-93
2022/01/19 08:59:34;;;;;;;24.85;10.18;;;;;;;20.25;19.06;93765.50;4996342;28;20094;-92
2022/01/19 09:06:53;;;;;;;;;;;;;;;;;;;;;
2022/01/19 09:09:36;;;;;;;27.15;9.68;;;;;;;18.27;20.93;93708.69;4996646;28;20135;-92
2022/01/19 09:12:43;;;;;;;20.77;9.32;;;;;;;17.54;21.34;93717.81;4942572;28;20040;-92
2022/01/19 09:15:25;;;;;;;25.92;9.70;;;;;;;14.84;23.63;93704.44;4942164;29;20026;-92
2022/01/19 09:18:17;;;;;;;;;;;;;;;;;;;;;
2022/01/19 09:21:33;;;;;;;22.40;9.25;;;;;;;12.94;27.88;93747.25;4896773;29;20055;-91
2022/01/19 09:24:10;;;;;;;23.33;9.70;;;;;;;12.45;28.44;93714.59;4865682;29;20155;-92
2022/01/19 09:26:41;;;;;;;25.55;9.10;;;;;;;12.22;29.87;93723.81;4916790;28;20070;-92
2022/01/19 09:29:26;;;;;;;20.73;9.23;;;;;;;11.94;29.56;93712.06;4993546;28;20054;-92
2022/01/19 09:38:37;;;;;;;24.83;8.77;;;;;;;12.82;28.94;93723.13;5016550;28;20491;-92
2022/01/19 09:52:00;;;;;;;20.80;7.45;;;;;;;12.91;28.49;93730.19;5017586;28;20052;-91
2022/01/19 09:54:30;;;;;;;22.23;8.85;;;;;;;12.54;29.06;93745.53;4999787;28;20480;-91
2022/01/19 09:56:56;;;;;;;21.00;9.65;;;;;;;11.22;31.44;93740.06;5017684;28;20025;-92
2022/01/19 09:59:22;;;;;;;21.27;9.10;;;;;;;11.21;32.47;93759.44;4983955;28;20049;-91
2022/01/19 10:02:06;;;;;;;21.95;8.23;;;;;;;10.10;33.09;93748.16;4999536;28;20061;-91
2022/01/19 10:08:16;;;;;;;20.50;8.35;;;;;;;10.09;33.88;93746.59;5015700;28;20038;-92
2022/01/19 10:10:44;;;;;;;22.77;8.57;;;;;;;10.15;34.25;93759.44;4984178;28;20503;-91
2022/01/19 10:23:35;;;;;;;15.73;7.18;;;;;;;10.49;32.50;93680.63;4999937;28;20073;-92
2022/01/19 10:26:03;;;;;;;23.42;7.93;;;;;;;10.92;32.75;93719.78;4999554;28;20120;-92
2022/01/19 10:33:02;;;;;;;18.85;6.95;;;;;;;10.27;33.18;93712.16;5017676;28;20593;-91
2022/01/19 10:43:56;;;;;;;;;;;;;;;9.91;34.33;93698.88;5017057;28;20044;-91
2022/01/19 10:46:50;;;;;;;17.00;6.68;;;;;;;9.50;34.94;93645.50;4999745;28;19939;-92
2022/01/19 10:53:33;;;;;;;;;;;;;;;;;;;;;
2022/01/19 11:12:38;;;;;;;;;;;;;;;;;;;;;
2022/01/19 11:15:48;;;;;;;24.17;9.68;;;;;;;8.73;37.33;93590.03;4975006;28;20049;-92
2022/01/19 11:21:53;;;;;;;26.17;9.18;;;;;;;9.91;35.47;93585.63;4965642;28;20075;-92
2022/01/19 11:25:14;;;;;;;;;;;;;;;;;;;;;
2022/01/19 11:27:52;;;;;;;24.05;10.52;;;;;;;9.44;36.04;93562.88;5025524;28;20114;-91
2022/01/19 11:30:54;;;;;;;24.15;9.35;;;;;;;8.81;38.42;93532.13;5005899;28;20128;-91
2022/01/19 11:33:52;;;;;;;;;;;;;;;;;;;;;
2022/01/19 11:36:34;;;;;;;;;;;;;;;;;;;;;
2022/01/19 11:39:30;;;;;;;;;;;;;;;;;;;;;
2022/01/19 11:42:28;;;;;;;22.88;9.27;;;;;;;9.66;37.68;93558.31;5014584;28;20038;-92
2022/01/19 11:45:41;;;;;;;20.83;7.35;;;;;;;9.58;36.48;93498.66;5014249;28;20479;-91
2022/01/19 11:52:26;;;;;;;32.88;9.43;;;;;;;10.06;35.32;93515.03;5015643;28;20053;-91
2022/01/19 11:55:29;;;;;;;24.77;10.50;;;;;;;10.14;34.76;93563.47;4995468;28;20041;-91
2022/01/19 11:58:29;;;;;;;23.70;8.98;;;;;;;9.83;35.62;93557.34;4967081;28;20050;-92
2022/01/19 12:01:39;;;;;;;;;;;;;;;;;;;;;
2022/01/19 12:04:55;;;;;;;;;;;;;;;;;;;;;
2022/01/19 12:11:21;;;;;;;20.42;8.43;;;;;;;8.78;37.82;93527.44;4993527;28;20043;-91
2022/01/19 12:18:10;;;;;;;;;;;;;;;;;;;;;
2022/01/19 12:21:39;;;;;;;25.05;9.85;;;;;;;8.49;37.65;93446.81;4955492;28;20042;-91
2022/01/19 12:24:52;;;;;;;;;;;;;;;;;;;;;
2022/01/19 12:27:51;;;;;;;;;;;;;;;;;;;;;
2022/01/19 12:30:37;;;;;;;22.10;9.77;;;;;;;8.24;39.95;93473.44;4959014;28;20049;-91
2022/01/19 12:33:36;;;;;;;;;;;;;;;;;;;;;
2022/01/19 12:40:29;;;;;;;;;;;;;;;;;;;;;
2022/01/19 12:43:35;;;;;;;23.15;9.25;;;;;;;9.79;36.38;93387.06;4968278;28;20090;-91
2022/01/19 12:46:55;;;;;;;19.85;8.48;;;;;;;9.59;35.71;93424.41;4972679;28;20047;-92
2022/01/19 12:49:39;;;;;;;24.42;9.25;;;;;;;9.38;38.05;93395.59;4958520;28;20043;-92
2022/01/19 12:52:30;;;;;;;;;;;;;;;9.73;37.01;93438.59;4945536;28;20035;-91
2022/01/19 12:55:36;;;;;;;7.38;4.05;;;;;;;8.64;38.41;93383.47;4954093;28;19914;-91
2022/01/19 12:58:56;;;;;;;17.52;6.97;;;;;;;8.09;40.26;93406.25;4944611;28;20129;-91
2022/01/19 13:05:43;;;;;;;;;;;;;;;;;;;;;
2022/01/19 13:12:30;;;;;;;31.83;11.00;;;;;;;9.50;37.21;93415.50;4973003;28;20081;-92
2022/01/19 13:15:38;;;;;;;36.17;11.98;;;;;;;8.92;38.72;93418.91;4974048;28;20042;-91
2022/01/19 13:18:25;;;;;;;34.45;12.02;;;;;;;8.94;37.83;93338.47;4971904;28;20403;-92
2022/01/19 13:21:16;;;;;;;30.55;11.65;;;;;;;8.87;37.76;93331.91;4973980;28;20041;-92
2022/01/19 13:24:32;;;;;;;29.08;11.15;;;;;;;9.05;37.75;93318.44;4986619;28;20541;-91
2022/01/19 13:30:50;;;;;;;;;;;;;;;;;;;;;
2022/01/19 13:33:34;;;;;;;;;;;;;;;;;;;;;
2022/01/19 13:36:16;;;;;;;29.48;10.38;;;;;;;9.31;38.07;93381.19;4972933;28;20034;-91
2022/01/19 13:42:24;;;;;;;32.05;11.45;;;;;;;7.96;41.88;93379.81;4964799;28;20038;-92
2022/01/19 13:45:48;;;;;;;;;;;;;;;;;;;;;
2022/01/19 13:54:52;;;;;;;45.08;16.98;;;;;;;8.57;42.21;93361.25;4991720;28;20041;-91
2022/01/19 13:57:45;;;;;;;;;;;;;;;;;;;;;
2022/01/19 14:07:16;;;;;;;;;;;;;;;;;;;;;
2022/01/19 14:09:48;;;;;;;47.63;18.15;;;;;;;8.35;43.47;93296.88;4975731;28;20080;-91
2022/01/19 14:12:37;;;;;;;35.90;15.60;;;;;;;8.24;43.35;93277.81;4994615;28;20037;-92
2022/01/19 14:15:21;;;;;;;;;;;;;;;;;;;;;
2022/01/19 14:18:36;;;;;;;43.53;17.15;;;;;;;7.88;44.39;93302.81;4996291;28;20049;-92
2022/01/19 14:33:25;;;;;;;;;;;;;;;;;;;;;
2022/01/19 14:36:26;;;;;;;44.33;16.13;;;;;;;9.13;41.37;93264.91;4977805;28;20042;-92
2022/01/19 14:42:59;;;;;;;48.38;16.45;;;;;;;8.90;41.90;93232.19;4989923;28;20108;-92
2022/01/19 14:48:45;;;;;;;49.05;18.95;;;;;;;8.21;43.18;93233.19;4997041;28;20053;-91
2022/01/19 14:51:56;;;;;;;30.07;10.67;;;;;;;8.13;44.12;93299.63;4995623;28;20129;-91
2022/01/19 14:55:12;;;;;;;48.50;17.23;;;;;;;8.16;44.10;93303.56;4996065;28;20260;-92
2022/01/19 14:58:29;;;;;;;;;;;;;;;;;;;;;
2022/01/19 15:01:18;;;;;;;46.80;18.67;;;;;;;7.59;44.16;93256.22;4972665;28;20463;-91
2022/01/19 15:04:22;;;;;;;36.45;14.63;;;;;;;8.13;42.44;93292.59;4996124;28;20047;-91
2022/01/19 15:07:02;;;;;;;45.25;17.10;;;;;;;7.58;42.97;93212.94;5010317;28;20049;-91
2022/01/19 15:09:40;;;;;;;;;;;;;;;;;;;;;
2022/01/19 15:12:16;;;;;;;41.65;15.98;;;;;;;7.67;41.75;93208.84;5019212;28;20045;-90
2022/01/19 15:15:04;;;;;;;48.10;17.48;;;;;;;8.49;41.85;93287.63;5001898;28;20042;-93
2022/01/19 15:17:52;;;;;;;;;;;;;;;;;;;;;
2022/01/19 15:20:29;;;;;;;51.13;17.88;;;;;;;7.54;43.30;93237.94;5031343;28;20042;-91
2022/01/19 15:23:02;;;;;;;50.95;18.88;;;;;;;6.57;45.54;93198.75;5006061;28;20034;-91
2022/01/19 15:25:48;;;;;;;60.50;19.80;;;;;;;6.41;46.28;93247.19;4984044;28;20124;-90
2022/01/19 15:28:26;;;;;;;48.53;19.50;;;;;;;5.88;47.80;93201.78;5025892;28;20553;-91
2022/01/19 15:31:04;;;;;;;50.38;19.40;;;;;;;5.68;48.20;93194.47;5013774;28;20040;-90
2022/01/19 15:33:37;;;;;;;59.45;20.48;;;;;;;5.73;49.15;93240.53;4982007;28;20447;-90
2022/01/19 15:36:15;;;;;;;56.58;18.38;;;;;;;5.75;49.61;93235.88;5012561;28;20044;-90
2022/01/19 15:38:44;;;;;;;53.88;19.48;;;;;;;5.68;50.52;93254.22;5011717;28;20033;-93
2022/01/19 15:41:23;;;;;;;44.85;18.48;;;;;;;5.18;50.74;93193.47;5027059;28;20034;-92
2022/01/19 15:44:10;;;;;;;52.15;19.77;;;;;;;5.52;50.88;93266.19;4832766;27;8227557;-72
2022/01/19 15:46:36;;;;;;;53.30;18.90;;;;;;;5.36;51.53;93272.94;5088277;28;20032;-71
2022/01/19 15:49:02;;;;;;;50.08;18.67;;;;;;;5.21;51.99;93270.09;5088257;28;20043;-71
2022/01/19 15:51:28;;;;;;;45.97;19.15;;;;;;;5.06;52.78;93273.19;5087552;28;20428;-71
2022/01/19 15:53:54;;;;;;;47.88;17.98;;;;;;;4.94;53.23;93267.28;5087876;28;20104;-71
2022/01/19 15:56:21;;;;;;;47.55;18.25;;;;;;;4.78;53.88;93268.81;5086606;28;20028;-72
2022/01/19 15:58:47;;;;;;;44.53;17.35;;;;;;;4.63;54.33;93264.09;5088274;28;20024;-72
2022/01/19 16:01:13;;;;;;;55.15;19.60;;;;;;;4.49;54.87;93267.97;5088387;28;20051;-71
2022/01/19 16:03:39;;;;;;;49.95;19.75;;;;;;;4.33;55.38;93257.28;5088201;28;20100;-72
2022/01/19 16:06:05;;;;;;;54.90;19.80;;;;;;;4.17;55.74;93258.00;5087067;28;20040;-72
2022/01/19 16:08:31;;;;;;;49.58;20.30;;;;;;;4.01;56.21;93259.47;5086683;28;20070;-71
2022/01/19 16:10:57;;;;;;;57.15;19.67;;;;;;;3.92;56.83;93259.03;5086690;28;20036;-71
2022/01/19 16:13:23;;;;;;;49.88;19.25;;;;;;;3.85;56.87;93263.53;5087846;28;20551;-71
2022/01/19 16:15:50;;;;;;;52.88;20.15;;;;;;;3.77;57.47;93266.47;5088122;28;20035;-71
2022/01/19 16:18:17;;;;;;;57.55;20.67;;;;;;;3.71;57.27;93260.38;5086320;28;20027;-73
2022/01/19 16:20:44;;;;;;;59.47;20.90;;;;;;;3.64;57.57;93259.69;5083205;28;20055;-71
2022/01/19 16:26:07;;;;;;;51.90;20.08;;;;;;;3.39;58.36;93265.06;5086594;28;20040;-71
2022/01/19 16:28:33;;;;;;;54.20;21.20;;;;;;;3.24;58.93;93262.09;5086667;28;20048;-71
2022/01/19 16:31:00;;;;;;;59.33;22.42;;;;;;;3.15;59.12;93260.84;5087665;28;20097;-71
2022/01/19 16:33:25;;;;;;;58.45;22.55;;;;;;;3.04;59.64;93263.19;5086511;28;20232;-71
2022/01/19 16:35:51;;;;;;;59.10;22.58;;;;;;;2.93;60.21;93263.94;5069493;28;20039;-71
2022/01/19 16:38:17;;;;;;;61.10;23.63;;;;;;;2.91;59.99;93258.19;5086319;28;20040;-71
2022/01/19 16:40:49;;;;;;;55.58;22.75;;;;;;;2.81;60.80;93258.69;5086583;28;20107;-71
2022/01/19 16:43:16;;;;;;;79.70;25.17;;;;;;;2.79;61.23;93270.28;5099184;28;20043;-71
2022/01/19 16:45:44;;;;;;;65.57;24.15;;;;;;;2.68;61.63;93270.03;5072578;28;20431;-71
2022/01/19 16:48:17;;;;;;;59.75;22.48;;;;;;;2.65;61.93;93269.66;5107608;28;20036;-72
2022/01/19 16:50:47;;;;;;;55.17;20.85;;;;;;;2.64;61.99;93270.69;5106624;28;20075;-71
2022/01/19 16:53:18;;;;;;;52.53;21.67;;;;;;;2.61;62.29;93258.97;5089362;28;20716;-73
2022/01/19 16:55:47;;;;;;;57.88;21.77;;;;;;;2.57;62.60;93262.19;5092703;28;20036;-73
2022/01/19 16:58:15;;;;;;;61.47;23.70;;;;;;;2.48;62.50;93259.94;5093927;28;20043;-76
2022/01/19 17:00:41;;;;;;;72.75;23.63;;;;;;;2.37;62.76;93257.28;5075886;28;20054;-74
2022/01/19 17:03:06;;;;;;;63.80;24.70;;;;;;;2.25;63.22;93249.44;5075932;28;20110;-74
2022/01/19 17:05:32;;;;;;;63.85;23.65;;;;;;;2.19;63.40;93263.25;5093748;28;20044;-73
2022/01/19 17:07:58;;;;;;;65.07;23.85;;;;;;;2.13;64.42;93249.38;5075930;28;20166;-74
2022/01/19 17:10:24;;;;;;;69.00;24.67;;;;;;;2.07;64.94;93253.63;5094088;28;20039;-75
2022/01/19 17:12:53;;;;;;;71.20;25.77;;;;;;;2.00;65.18;93258.03;5059258;28;20028;-74
2022/01/19 17:15:29;;;;;;;67.07;24.63;;;;;;;1.96;65.26;93256.09;5094216;28;20433;-75
2022/01/19 17:17:56;;;;;;;70.00;24.45;;;;;;;1.92;65.21;93252.41;5092731;28;20043;-75
2022/01/19 17:20:26;;;;;;;74.32;24.75;;;;;;;1.85;65.86;93255.81;5093333;28;20043;-75
2022/01/19 17:22:56;;;;;;;67.38;24.27;;;;;;;1.84;66.26;93248.28;5076039;28;20032;-75
2022/01/19 17:25:22;;;;;;;61.70;23.65;;;;;;;1.79;65.97;93241.19;5093573;28;20039;-74
2022/01/19 17:27:49;;;;;;;69.30;23.70;;;;;;;1.70;66.62;93242.47;5075958;28;20039;-74
2022/01/19 17:30:15;;;;;;;69.35;24.52;;;;;;;1.66;66.54;93242.09;5075101;28;20071;-74
2022/01/19 17:32:41;;;;;;;74.63;25.00;;;;;;;1.59;66.62;93235.41;5073993;28;20013;-74
2022/01/19 17:35:08;;;;;;;63.45;23.63;;;;;;;1.58;67.24;93237.22;5075120;28;20059;-73